createdAt,value
2018-12-18T00:00:11.388Z,95.43
2018-12-18T00:01:11.387Z,95.22
2018-12-18T00:02:11.401Z,94.70
2018-12-18T00:03:11.365Z,94.60
2018-12-18T00:04:11.402Z,94.60
2018-12-18T00:05:11.333Z,94.49
2018-12-18T00:06:11.337Z,94.66
2018-12-18T00:07:11.409Z,94.60
2018-12-18T00:08:11.381Z,94.70
2018-12-18T00:09:11.308Z,94.91
2018-12-18T00:10:11.298Z,94.70
2018-12-18T00:11:11.268Z,94.60
2018-12-18T00:12:11.260Z,94.60
2018-12-18T00:13:11.274Z,94.81
2018-12-18T00:14:11.238Z,94.60
2018-12-18T00:15:11.228Z,94.81
2018-12-18T00:16:11.213Z,94.81
2018-12-18T00:17:11.257Z,94.70
2018-12-18T00:18:11.264Z,94.49
2018-12-18T00:19:11.197Z,94.18
2018-12-18T00:20:11.171Z,93.77
2018-12-18T00:21:11.160Z,93.66
2018-12-18T00:22:11.144Z,93.66
2018-12-18T00:23:11.160Z,94.14
2018-12-18T00:24:18.677Z,93.10
2018-12-18T00:25:11.114Z,93.73
2018-12-18T00:26:11.106Z,93.73
2018-12-18T00:27:18.248Z,94.04
2018-12-18T00:28:11.111Z,93.56
2018-12-18T00:29:11.090Z,93.83
2018-12-18T00:30:11.062Z,94.18
2018-12-18T00:31:11.049Z,93.73
2018-12-18T00:32:11.035Z,93.87
2018-12-18T00:33:11.049Z,93.66
2018-12-18T00:34:11.044Z,93.98
2018-12-18T00:35:11.005Z,94.29
2018-12-18T00:36:11.002Z,94.08
2018-12-18T00:37:11.007Z,93.98
2018-12-18T00:38:10.972Z,94.18
2018-12-18T00:39:10.986Z,94.08
2018-12-18T00:40:10.971Z,93.98
2018-12-18T00:41:10.941Z,94.33
2018-12-18T00:42:10.945Z,93.56
2018-12-18T00:43:10.942Z,93.87
2018-12-18T00:44:10.934Z,93.50
2018-12-18T00:45:10.898Z,93.91
2018-12-18T00:46:10.893Z,93.50
2018-12-18T00:47:10.893Z,94.02
2018-12-18T00:48:10.885Z,94.18
2018-12-18T00:49:10.855Z,93.87
2018-12-18T00:50:10.841Z,94.29
2018-12-18T00:51:10.828Z,94.33
2018-12-18T00:52:10.819Z,94.33
2018-12-18T00:53:10.830Z,94.33
2018-12-18T00:54:10.811Z,93.81
2018-12-18T00:55:10.787Z,94.54
2018-12-18T00:56:10.772Z,94.64
2018-12-18T00:57:10.763Z,94.54
2018-12-18T00:58:10.775Z,94.43
2018-12-18T00:59:10.741Z,94.64
2018-12-18T01:00:10.726Z,94.43
2018-12-18T01:01:10.738Z,94.54
2018-12-18T01:02:10.718Z,94.64
2018-12-18T01:03:10.704Z,94.74
2018-12-18T01:04:10.685Z,94.74
2018-12-18T01:05:10.694Z,94.70
2018-12-18T01:06:10.718Z,94.85
2018-12-18T01:07:10.651Z,94.95
2018-12-18T01:08:10.640Z,94.74
2018-12-18T01:09:10.627Z,95.06
2018-12-18T01:10:10.621Z,94.49
2018-12-18T01:11:10.627Z,94.54
2018-12-18T01:12:10.634Z,94.70
2018-12-18T01:13:10.593Z,94.18
2018-12-18T01:14:10.576Z,94.91
2018-12-18T01:15:10.574Z,94.74
2018-12-18T01:16:10.569Z,94.81
2018-12-18T01:17:10.563Z,94.64
2018-12-18T01:18:10.545Z,94.60
2018-12-18T01:19:10.526Z,95.26
2018-12-18T01:20:10.509Z,94.81
2018-12-18T01:21:10.498Z,94.85
2018-12-18T01:22:10.512Z,94.60
2018-12-18T01:23:10.486Z,94.95
2018-12-18T01:24:10.478Z,94.64
2018-12-18T01:25:10.475Z,94.70
2018-12-18T01:26:10.444Z,94.70
2018-12-18T01:27:10.438Z,94.49
2018-12-18T01:28:10.432Z,93.87
2018-12-18T01:29:10.446Z,93.98
2018-12-18T01:30:10.413Z,94.12
2018-12-18T01:31:10.383Z,93.98
2018-12-18T01:32:10.421Z,94.12
2018-12-18T01:33:10.377Z,93.91
2018-12-18T01:34:10.366Z,93.81
2018-12-18T01:35:10.338Z,93.71
2018-12-18T01:36:10.383Z,94.02
2018-12-18T01:37:10.357Z,93.25
2018-12-18T01:38:10.325Z,94.02
2018-12-18T01:39:10.323Z,94.02
2018-12-18T01:40:10.301Z,94.02
2018-12-18T01:41:10.300Z,94.23
2018-12-18T01:42:10.272Z,94.02
2018-12-18T01:43:10.255Z,94.02
2018-12-18T01:44:10.268Z,94.17
2018-12-18T01:45:10.234Z,93.54
2018-12-18T01:46:10.231Z,93.75
2018-12-18T01:47:10.208Z,94.33
2018-12-18T01:48:10.200Z,94.33
2018-12-18T01:49:10.218Z,93.60
2018-12-18T01:50:10.186Z,93.40
2018-12-18T01:51:10.210Z,93.81
2018-12-18T01:52:10.173Z,94.29
2018-12-18T01:53:10.193Z,94.12
2018-12-18T01:54:10.148Z,94.02
2018-12-18T01:55:10.132Z,93.40
2018-12-18T01:56:10.134Z,93.91
2018-12-18T01:57:10.126Z,93.40
2018-12-18T01:58:10.108Z,93.56
2018-12-18T01:59:10.089Z,93.56
2018-12-18T02:00:10.088Z,93.35
2018-12-18T02:01:10.052Z,94.08
2018-12-18T02:02:10.044Z,94.33
2018-12-18T02:03:10.051Z,94.12
2018-12-18T02:04:10.070Z,93.60
2018-12-18T02:05:10.057Z,93.81
2018-12-18T02:06:09.999Z,93.50
2018-12-18T02:07:09.991Z,93.81
2018-12-18T02:08:18.729Z,93.71
2018-12-18T02:09:09.980Z,93.91
2018-12-18T02:10:09.979Z,93.50
2018-12-18T02:11:09.947Z,93.91
2018-12-18T02:12:09.938Z,93.81
2018-12-18T02:13:09.971Z,93.60
2018-12-18T02:14:09.923Z,93.50
2018-12-18T02:15:09.910Z,93.81
2018-12-18T02:16:09.915Z,93.91
2018-12-18T02:17:09.903Z,93.81
2018-12-18T02:18:09.864Z,93.50
2018-12-18T02:19:09.878Z,94.02
2018-12-18T02:20:09.855Z,94.02
2018-12-18T02:21:09.859Z,94.33
2018-12-18T02:22:09.826Z,94.02
2018-12-18T02:23:09.834Z,94.12
2018-12-18T02:24:09.825Z,94.12
2018-12-18T02:25:09.788Z,94.17
2018-12-18T02:26:09.778Z,93.91
2018-12-18T02:27:09.782Z,94.54
2018-12-18T02:28:09.810Z,94.37
2018-12-18T02:29:09.743Z,94.58
2018-12-18T02:30:09.737Z,94.06
2018-12-18T02:31:09.767Z,93.96
2018-12-18T02:32:09.715Z,94.37
2018-12-18T02:33:09.728Z,94.06
2018-12-18T02:34:13.715Z,94.58
2018-12-18T02:35:09.747Z,94.79
2018-12-18T02:36:09.668Z,94.89
2018-12-18T02:37:09.676Z,94.58
2018-12-18T02:38:09.654Z,94.68
2018-12-18T02:39:09.643Z,94.79
2018-12-18T02:40:09.670Z,95.31
2018-12-18T02:41:09.617Z,95.41
2018-12-18T02:42:09.648Z,95.31
2018-12-18T02:43:09.593Z,95.72
2018-12-18T02:44:09.594Z,94.74
2018-12-18T02:45:09.633Z,94.74
2018-12-18T02:46:09.581Z,94.02
2018-12-18T02:47:09.550Z,93.91
2018-12-18T02:48:09.534Z,93.77
2018-12-18T02:49:09.534Z,93.87
2018-12-18T02:50:09.511Z,93.35
2018-12-18T02:51:09.536Z,93.98
2018-12-18T02:52:09.539Z,93.98
2018-12-18T02:53:09.479Z,93.25
2018-12-18T02:54:09.472Z,93.98
2018-12-18T02:55:09.459Z,94.23
2018-12-18T02:56:09.479Z,94.33
2018-12-18T02:57:09.449Z,93.81
2018-12-18T02:58:09.471Z,93.81
2018-12-18T02:59:09.440Z,94.43
2018-12-18T03:00:09.416Z,94.33
2018-12-18T03:01:09.399Z,93.91
2018-12-18T03:02:09.414Z,94.33
2018-12-18T03:03:09.374Z,94.43
2018-12-18T03:04:09.388Z,93.75
2018-12-18T03:05:09.350Z,94.37
2018-12-18T03:06:09.344Z,93.96
2018-12-18T03:07:09.341Z,94.11
2018-12-18T03:08:09.318Z,93.70
2018-12-18T03:09:09.366Z,94.32
2018-12-18T03:10:09.301Z,94.11
2018-12-18T03:11:09.286Z,94.53
2018-12-18T03:12:09.287Z,94.84
2018-12-18T03:13:09.276Z,94.94
2018-12-18T03:14:09.284Z,94.73
2018-12-18T03:15:09.285Z,94.63
2018-12-18T03:16:09.231Z,95.04
2018-12-18T03:17:09.216Z,94.73
2018-12-18T03:18:09.241Z,94.58
2018-12-18T03:19:09.206Z,94.73
2018-12-18T03:20:09.213Z,94.73
2018-12-18T03:21:09.198Z,94.37
2018-12-18T03:22:09.162Z,94.58
2018-12-18T03:23:09.149Z,94.89
2018-12-18T03:24:09.168Z,94.68
2018-12-18T03:25:09.144Z,95.00
2018-12-18T03:26:09.112Z,94.89
2018-12-18T03:27:09.220Z,95.51
2018-12-18T03:28:09.115Z,95.51
2018-12-18T03:29:09.082Z,95.62
2018-12-18T03:30:09.075Z,95.51
2018-12-18T03:31:09.089Z,95.41
2018-12-18T03:32:09.095Z,95.62
2018-12-18T03:33:09.074Z,95.41
2018-12-18T03:34:09.026Z,95.62
2018-12-18T03:35:09.052Z,96.03
2018-12-18T03:36:09.024Z,95.31
2018-12-18T03:37:09.020Z,95.72
2018-12-18T03:38:09.026Z,94.58
2018-12-18T03:39:08.977Z,94.68
2018-12-18T03:40:08.996Z,94.58
2018-12-18T03:41:08.961Z,94.48
2018-12-18T03:42:08.975Z,94.53
2018-12-18T03:43:08.933Z,94.68
2018-12-18T03:44:08.918Z,94.79
2018-12-18T03:45:08.934Z,95.04
2018-12-18T03:46:08.903Z,95.67
2018-12-18T03:47:08.905Z,95.67
2018-12-18T03:48:08.877Z,95.25
2018-12-18T03:49:08.861Z,95.77
2018-12-18T03:50:08.854Z,95.87
2018-12-18T03:51:08.868Z,95.67
2018-12-18T03:52:08.852Z,95.67
2018-12-18T03:53:08.816Z,95.56
2018-12-18T03:54:08.809Z,95.46
2018-12-18T03:55:08.814Z,95.67
2018-12-18T03:56:08.818Z,95.36
2018-12-18T03:57:08.804Z,95.41
2018-12-18T03:58:08.775Z,95.41
2018-12-18T03:59:08.761Z,95.51
2018-12-18T04:00:08.766Z,95.31
2018-12-18T04:01:08.796Z,95.00
2018-12-18T04:02:08.735Z,95.00
2018-12-18T04:03:08.713Z,94.17
2018-12-18T04:04:08.722Z,95.00
2018-12-18T04:05:08.700Z,94.68
2018-12-18T04:06:08.671Z,94.79
2018-12-18T04:07:08.707Z,94.95
2018-12-18T04:08:08.657Z,94.89
2018-12-18T04:09:08.679Z,94.79
2018-12-18T04:10:08.630Z,94.79
2018-12-18T04:11:08.630Z,94.43
2018-12-18T04:12:08.679Z,94.74
2018-12-18T04:13:08.603Z,94.68
2018-12-18T04:14:08.700Z,93.91
2018-12-18T04:15:08.577Z,94.12
2018-12-18T04:16:08.612Z,93.81
2018-12-18T04:17:08.564Z,94.02
2018-12-18T04:18:08.545Z,93.91
2018-12-18T04:19:08.535Z,93.81
2018-12-18T04:20:08.564Z,93.60
2018-12-18T04:21:08.505Z,94.33
2018-12-18T04:22:08.497Z,94.02
2018-12-18T04:23:08.496Z,94.12
2018-12-18T04:24:08.537Z,93.50
2018-12-18T04:25:08.513Z,93.50
2018-12-18T04:26:08.473Z,93.81
2018-12-18T04:27:08.466Z,94.02
2018-12-18T04:28:08.446Z,93.81
2018-12-18T04:29:08.423Z,93.60
2018-12-18T04:30:08.434Z,93.71
2018-12-18T04:31:08.402Z,93.71
2018-12-18T04:32:08.767Z,93.54
2018-12-18T04:33:08.393Z,93.81
2018-12-18T04:34:08.376Z,93.91
2018-12-18T04:35:08.354Z,94.02
2018-12-18T04:36:08.343Z,94.02
2018-12-18T04:37:08.351Z,94.33
2018-12-18T04:38:08.327Z,93.08
2018-12-18T04:39:08.313Z,93.46
2018-12-18T04:40:08.304Z,93.60
2018-12-18T04:41:08.340Z,93.29
2018-12-18T04:42:08.298Z,93.60
2018-12-18T04:43:08.326Z,93.29
2018-12-18T04:44:08.251Z,93.19
2018-12-18T04:45:08.265Z,93.50
2018-12-18T04:46:08.248Z,93.60
2018-12-18T04:47:08.239Z,93.29
2018-12-18T04:48:08.242Z,93.60
2018-12-18T04:49:08.199Z,93.29
2018-12-18T04:50:08.185Z,93.54
2018-12-18T04:51:08.227Z,93.44
2018-12-18T04:52:08.177Z,93.85
2018-12-18T04:53:08.189Z,93.81
2018-12-18T04:54:08.146Z,94.27
2018-12-18T04:55:08.177Z,94.06
2018-12-18T04:56:08.123Z,94.06
2018-12-18T04:57:08.129Z,93.85
2018-12-18T04:58:08.100Z,93.65
2018-12-18T04:59:08.088Z,93.08
2018-12-18T05:00:08.105Z,92.88
2018-12-18T05:01:08.078Z,93.19
2018-12-18T05:02:08.062Z,93.50
2018-12-18T05:03:08.064Z,92.88
2018-12-18T05:04:08.068Z,93.19
2018-12-18T05:05:08.027Z,93.60
2018-12-18T05:06:08.013Z,92.82
2018-12-18T05:07:08.010Z,93.13
2018-12-18T05:08:08.002Z,93.33
2018-12-18T05:09:08.005Z,93.65
2018-12-18T05:10:07.968Z,93.85
2018-12-18T05:11:07.970Z,93.85
2018-12-18T05:12:07.982Z,93.33
2018-12-18T05:13:07.943Z,93.33
2018-12-18T05:14:07.927Z,93.33
2018-12-18T05:15:07.926Z,93.96
2018-12-18T05:16:07.900Z,93.54
2018-12-18T05:17:07.945Z,93.44
2018-12-18T05:18:07.888Z,93.33
2018-12-18T05:19:07.873Z,93.65
2018-12-18T05:20:07.860Z,93.54
2018-12-18T05:21:07.875Z,93.33
2018-12-18T05:22:07.834Z,93.33
2018-12-18T05:23:07.827Z,93.33
2018-12-18T05:24:07.846Z,92.61
2018-12-18T05:25:07.803Z,93.59
2018-12-18T05:26:07.794Z,92.66
2018-12-18T05:27:07.791Z,93.49
2018-12-18T05:28:07.818Z,93.49
2018-12-18T05:29:07.782Z,93.59
2018-12-18T05:30:07.749Z,93.53
2018-12-18T05:31:07.762Z,93.95
2018-12-18T05:32:07.731Z,94.46
2018-12-18T05:33:07.713Z,94.46
2018-12-18T05:34:07.719Z,93.95
2018-12-18T05:35:07.698Z,93.95
2018-12-18T05:36:07.723Z,94.15
2018-12-18T05:37:07.668Z,93.84
2018-12-18T05:38:07.676Z,93.63
2018-12-18T05:39:07.645Z,93.99
2018-12-18T05:40:07.644Z,94.71
2018-12-18T05:41:07.645Z,94.78
2018-12-18T05:42:07.708Z,94.78
2018-12-18T05:43:07.607Z,94.78
2018-12-18T05:44:07.590Z,94.78
2018-12-18T05:45:07.580Z,94.67
2018-12-18T05:46:07.572Z,94.46
2018-12-18T05:47:07.589Z,94.32
2018-12-18T05:48:07.548Z,94.01
2018-12-18T05:49:07.549Z,93.70
2018-12-18T05:50:07.545Z,93.90
2018-12-18T05:51:07.526Z,94.11
2018-12-18T05:52:07.526Z,93.90
2018-12-18T05:53:07.495Z,93.80
2018-12-18T05:54:07.513Z,94.01
2018-12-18T05:55:07.738Z,94.53
2018-12-18T05:56:07.463Z,93.54
2018-12-18T05:57:07.463Z,93.85
2018-12-18T05:58:07.434Z,93.33
2018-12-18T05:59:07.448Z,93.65
2018-12-18T06:00:07.559Z,93.96
2018-12-18T06:01:07.412Z,93.33
2018-12-18T06:02:07.430Z,93.44
2018-12-18T06:03:07.457Z,93.54
2018-12-18T06:04:07.369Z,93.54
2018-12-18T06:05:15.396Z,93.54
2018-12-18T06:06:07.352Z,93.23
2018-12-18T06:07:07.331Z,93.59
2018-12-18T06:08:07.359Z,93.54
2018-12-18T06:09:07.312Z,93.44
2018-12-18T06:10:07.304Z,93.54
2018-12-18T06:11:07.310Z,93.54
2018-12-18T06:12:07.286Z,93.44
2018-12-18T06:13:07.352Z,93.13
2018-12-18T06:14:07.262Z,93.23
2018-12-18T06:15:07.269Z,92.61
2018-12-18T06:16:07.242Z,92.61
2018-12-18T06:17:07.229Z,92.93
2018-12-18T06:18:07.234Z,92.93
2018-12-18T06:19:07.204Z,92.82
2018-12-18T06:20:07.230Z,93.13
2018-12-18T06:21:07.210Z,93.40
2018-12-18T06:22:07.169Z,93.23
2018-12-18T06:23:07.177Z,93.50
2018-12-18T06:24:07.150Z,93.13
2018-12-18T06:25:07.141Z,93.23
2018-12-18T06:26:07.146Z,93.50
2018-12-18T06:27:07.115Z,92.61
2018-12-18T06:28:07.120Z,92.98
2018-12-18T06:29:07.127Z,93.08
2018-12-18T06:30:07.087Z,93.08
2018-12-18T06:31:07.090Z,92.88
2018-12-18T06:32:07.060Z,92.88
2018-12-18T06:33:07.067Z,92.57
2018-12-18T06:34:07.060Z,92.68
2018-12-18T06:35:10.178Z,91.64
2018-12-18T06:36:07.031Z,91.74
2018-12-18T06:37:07.010Z,92.26
2018-12-18T06:38:07.023Z,92.57
2018-12-18T06:39:06.983Z,92.16
2018-12-18T06:40:06.995Z,92.36
2018-12-18T06:41:06.969Z,92.16
2018-12-18T06:42:06.980Z,92.47
2018-12-18T06:43:06.978Z,92.78
2018-12-18T06:44:06.924Z,92.78
2018-12-18T06:45:06.945Z,92.78
2018-12-18T06:46:06.969Z,92.98
2018-12-18T06:47:06.901Z,92.47
2018-12-18T06:48:06.883Z,92.68
2018-12-18T06:49:06.917Z,93.08
2018-12-18T06:50:06.900Z,92.36
2018-12-18T06:51:06.850Z,92.16
2018-12-18T06:52:06.844Z,92.88
2018-12-18T06:53:06.851Z,92.26
2018-12-18T06:54:06.849Z,92.16
2018-12-18T06:55:06.802Z,92.68
2018-12-18T06:56:06.820Z,92.68
2018-12-18T06:57:06.781Z,92.78
2018-12-18T06:58:06.794Z,93.60
2018-12-18T06:59:14.803Z,92.47
2018-12-18T07:00:06.772Z,92.05
2018-12-18T07:01:06.736Z,92.16
2018-12-18T07:02:06.725Z,92.68
2018-12-18T07:03:06.728Z,92.68
2018-12-18T07:04:06.706Z,92.88
2018-12-18T07:05:06.712Z,92.47
2018-12-18T07:06:06.712Z,93.29
2018-12-18T07:07:06.679Z,93.08
2018-12-18T07:08:06.659Z,93.29
2018-12-18T07:09:06.648Z,93.19
2018-12-18T07:10:06.653Z,93.08
2018-12-18T07:11:06.636Z,93.08
2018-12-18T07:12:06.619Z,93.33
2018-12-18T07:13:06.633Z,93.13
2018-12-18T07:14:06.594Z,93.40
2018-12-18T07:15:06.582Z,93.60
2018-12-18T07:16:06.579Z,93.08
2018-12-18T07:17:06.563Z,93.08
2018-12-18T07:18:06.597Z,93.40
2018-12-18T07:19:06.542Z,93.08
2018-12-18T07:20:06.529Z,93.19
2018-12-18T07:21:06.515Z,93.29
2018-12-18T07:22:06.504Z,93.08
2018-12-18T07:23:06.527Z,93.50
2018-12-18T07:24:06.528Z,93.19
2018-12-18T07:25:06.474Z,93.08
2018-12-18T07:26:06.460Z,93.08
2018-12-18T07:27:06.448Z,93.29
2018-12-18T07:28:06.441Z,93.19
2018-12-18T07:29:06.455Z,92.88
2018-12-18T07:30:06.417Z,93.40
2018-12-18T07:31:06.408Z,93.19
2018-12-18T07:32:06.418Z,92.57
2018-12-18T07:33:06.387Z,93.40
2018-12-18T07:34:06.394Z,93.19
2018-12-18T07:35:06.364Z,93.56
2018-12-18T07:36:06.353Z,92.88
2018-12-18T07:37:06.382Z,93.19
2018-12-18T07:38:06.357Z,93.08
2018-12-18T07:39:06.349Z,93.50
2018-12-18T07:40:06.324Z,93.81
2018-12-18T07:41:06.336Z,93.81
2018-12-18T07:42:06.284Z,93.29
2018-12-18T07:43:06.272Z,93.08
2018-12-18T07:44:06.264Z,93.40
2018-12-18T07:45:06.250Z,92.57
2018-12-18T07:46:06.265Z,92.78
2018-12-18T07:47:06.267Z,92.74
2018-12-18T07:48:06.220Z,92.94
2018-12-18T07:49:06.216Z,93.46
2018-12-18T07:50:06.195Z,92.74
2018-12-18T07:51:06.186Z,91.91
2018-12-18T07:52:06.203Z,91.80
2018-12-18T07:53:06.162Z,91.91
2018-12-18T07:54:06.150Z,92.32
2018-12-18T07:55:06.147Z,92.32
2018-12-18T07:56:06.128Z,91.70
2018-12-18T07:57:06.140Z,92.11
2018-12-18T07:58:06.105Z,92.01
2018-12-18T07:59:06.095Z,91.49
2018-12-18T08:00:06.088Z,92.63
2018-12-18T08:01:06.101Z,92.43
2018-12-18T08:02:06.064Z,92.26
2018-12-18T08:03:06.061Z,92.22
2018-12-18T08:04:06.079Z,91.70
2018-12-18T08:05:06.028Z,91.91
2018-12-18T08:06:06.018Z,92.11
2018-12-18T08:07:06.016Z,92.43
2018-12-18T08:08:06.001Z,92.32
2018-12-18T08:09:06.009Z,92.32
2018-12-18T08:10:05.977Z,92.53
2018-12-18T08:11:05.962Z,91.80
2018-12-18T08:12:05.971Z,91.49
2018-12-18T08:13:06.009Z,92.32
2018-12-18T08:14:06.005Z,92.22
2018-12-18T08:15:05.938Z,92.32
2018-12-18T08:16:05.911Z,92.22
2018-12-18T08:17:05.910Z,91.70
2018-12-18T08:18:05.909Z,92.11
2018-12-18T08:19:05.877Z,91.18
2018-12-18T08:20:05.873Z,90.97
2018-12-18T08:21:05.870Z,91.18
2018-12-18T08:22:05.882Z,91.60
2018-12-18T08:23:05.830Z,91.39
2018-12-18T08:24:05.819Z,90.97
2018-12-18T08:25:05.806Z,91.08
2018-12-18T08:26:05.809Z,91.08
2018-12-18T08:27:05.825Z,91.18
2018-12-18T08:28:05.774Z,90.97
2018-12-18T08:29:05.762Z,91.49
2018-12-18T08:30:05.755Z,91.60
2018-12-18T08:31:05.743Z,91.03
2018-12-18T08:32:05.761Z,91.45
2018-12-18T08:33:05.725Z,91.18
2018-12-18T08:34:05.715Z,91.49
2018-12-18T08:35:05.699Z,91.08
2018-12-18T08:36:05.721Z,91.28
2018-12-18T08:37:05.687Z,91.70
2018-12-18T08:38:05.665Z,91.60
2018-12-18T08:39:05.665Z,91.14
2018-12-18T08:40:05.645Z,91.18
2018-12-18T08:41:05.661Z,91.18
2018-12-18T08:42:05.619Z,90.97
2018-12-18T08:43:05.637Z,90.93
2018-12-18T08:44:05.618Z,91.18
2018-12-18T08:48:38.654Z,91.39
2018-12-18T08:49:38.633Z,91.14
2018-12-18T08:50:38.639Z,91.55
2018-12-18T08:51:38.624Z,91.08
2018-12-18T08:52:38.619Z,91.24
2018-12-18T08:53:38.585Z,91.28
2018-12-18T08:54:38.625Z,91.08
2018-12-18T08:55:38.572Z,91.49
2018-12-18T08:56:38.565Z,91.14
2018-12-18T08:57:38.570Z,91.24
2018-12-18T08:58:38.536Z,91.14
2018-12-18T08:59:38.540Z,90.41
2018-12-18T09:00:38.509Z,90.93
2018-12-18T09:01:38.515Z,90.93
2018-12-18T09:02:38.485Z,91.45
2018-12-18T09:03:38.519Z,91.24
2018-12-18T09:04:38.500Z,91.03
2018-12-18T09:05:43.104Z,91.24
2018-12-18T09:06:38.446Z,90.41
2018-12-18T09:07:38.434Z,90.41
2018-12-18T09:08:38.422Z,90.52
2018-12-18T09:09:38.449Z,90.83
2018-12-18T09:10:39.983Z,90.93
2018-12-18T09:11:38.386Z,91.03
2018-12-18T09:12:38.376Z,91.45
2018-12-18T09:13:38.366Z,91.45
2018-12-18T09:14:38.378Z,90.83
2018-12-18T09:15:38.368Z,90.83
2018-12-18T09:16:38.334Z,91.14
2018-12-18T09:17:38.343Z,91.03
2018-12-18T09:18:38.309Z,90.52
2018-12-18T09:19:38.313Z,90.62
2018-12-18T09:20:38.331Z,90.93
2018-12-18T09:21:38.275Z,90.83
2018-12-18T09:22:38.271Z,90.83
2018-12-18T09:23:38.255Z,90.62
2018-12-18T09:24:38.245Z,90.41
2018-12-18T09:25:38.264Z,90.58
2018-12-18T09:26:38.253Z,89.34
2018-12-18T09:27:38.212Z,89.65
2018-12-18T09:28:38.199Z,89.54
2018-12-18T09:29:38.189Z,89.65
2018-12-18T09:30:42.376Z,89.86
2018-12-18T09:31:38.188Z,89.65
2018-12-18T09:32:38.165Z,89.03
2018-12-18T09:33:38.148Z,89.03
2018-12-18T09:34:38.131Z,89.34
2018-12-18T09:35:38.122Z,89.34
2018-12-18T09:36:38.142Z,89.23
2018-12-18T09:37:38.098Z,88.92
2018-12-18T09:38:38.103Z,89.75
2018-12-18T09:39:38.077Z,89.44
2018-12-18T09:40:38.066Z,89.54
2018-12-18T09:41:38.079Z,89.44
2018-12-18T09:42:38.051Z,89.54
2018-12-18T09:43:38.068Z,89.03
2018-12-18T09:44:38.081Z,89.03
2018-12-18T09:45:38.011Z,89.34
2018-12-18T09:46:38.005Z,89.23
2018-12-18T09:47:37.988Z,88.82
2018-12-18T09:48:38.006Z,89.54
2018-12-18T09:49:37.972Z,89.13
2018-12-18T09:50:37.966Z,89.50
2018-12-18T09:51:37.947Z,89.23
2018-12-18T09:52:37.933Z,89.09
2018-12-18T09:53:38.048Z,88.71
2018-12-18T09:54:37.921Z,88.67
2018-12-18T09:55:37.899Z,88.67
2018-12-18T09:56:37.909Z,89.09
2018-12-18T09:57:37.878Z,89.09
2018-12-18T09:58:37.896Z,89.19
2018-12-18T09:59:37.861Z,88.57
2018-12-18T10:00:37.844Z,89.50
2018-12-18T10:01:37.834Z,88.67
2018-12-18T10:02:37.930Z,88.46
2018-12-18T10:03:37.837Z,87.33
2018-12-18T10:04:37.831Z,88.26
2018-12-18T10:05:37.790Z,87.49
2018-12-18T10:06:37.782Z,87.70
2018-12-18T10:07:37.767Z,87.54
2018-12-18T10:08:37.844Z,87.02
2018-12-18T10:09:37.769Z,87.18
2018-12-18T10:10:37.734Z,87.39
2018-12-18T10:11:37.729Z,87.29
2018-12-18T10:12:37.744Z,86.98
2018-12-18T10:13:37.708Z,87.81
2018-12-18T10:14:37.731Z,87.70
2018-12-18T10:15:37.678Z,87.49
2018-12-18T10:16:37.668Z,87.81
2018-12-18T10:17:37.659Z,87.60
2018-12-18T10:18:37.677Z,87.18
2018-12-18T10:19:37.635Z,87.18
2018-12-18T10:20:37.645Z,86.77
2018-12-18T10:21:37.613Z,86.88
2018-12-18T10:22:37.637Z,85.74
2018-12-18T10:23:37.599Z,85.11
2018-12-18T10:24:37.579Z,85.02
2018-12-18T10:25:37.568Z,85.18
2018-12-18T10:26:37.560Z,86.05
2018-12-18T10:27:37.613Z,85.32
2018-12-18T10:28:37.541Z,86.15
2018-12-18T10:29:37.539Z,85.74
2018-12-18T10:30:37.513Z,86.15
2018-12-18T10:31:37.521Z,85.74
2018-12-18T10:32:37.509Z,85.70
2018-12-18T10:33:37.532Z,85.63
2018-12-18T10:34:37.476Z,84.91
2018-12-18T10:35:37.485Z,85.70
2018-12-18T10:36:37.448Z,85.49
2018-12-18T10:37:37.437Z,85.39
2018-12-18T10:38:37.450Z,85.63
2018-12-18T10:39:37.483Z,84.45
2018-12-18T10:40:37.430Z,84.25
2018-12-18T10:41:37.392Z,84.87
2018-12-18T10:42:37.423Z,84.56
2018-12-18T10:43:37.372Z,84.87
2018-12-18T10:44:37.371Z,85.08
2018-12-18T10:45:37.346Z,85.70
2018-12-18T10:46:37.362Z,85.70
2018-12-18T10:47:37.367Z,85.49
2018-12-18T10:48:37.342Z,84.42
2018-12-18T10:49:37.306Z,84.77
2018-12-18T10:50:37.296Z,84.87
2018-12-18T10:51:37.286Z,85.49
2018-12-18T10:52:37.286Z,85.60
2018-12-18T10:53:37.299Z,85.08
2018-12-18T10:54:37.248Z,84.56
2018-12-18T10:55:37.237Z,85.18
2018-12-18T10:56:37.263Z,85.70
2018-12-18T10:57:37.222Z,84.25
2018-12-18T10:58:37.237Z,85.18
2018-12-18T10:59:37.197Z,85.08
2018-12-18T11:00:37.184Z,85.08
2018-12-18T11:01:37.173Z,84.36
2018-12-18T11:02:37.167Z,85.18
2018-12-18T11:03:37.251Z,84.97
2018-12-18T11:04:37.158Z,85.08
2018-12-18T11:05:37.132Z,84.87
2018-12-18T11:06:37.115Z,84.87
2018-12-18T11:07:37.106Z,84.56
2018-12-18T11:08:37.117Z,84.87
2018-12-18T11:09:37.085Z,85.24
2018-12-18T11:10:37.103Z,85.14
2018-12-18T11:11:37.134Z,85.14
2018-12-18T11:12:37.050Z,84.45
2018-12-18T11:13:37.075Z,83.70
2018-12-18T11:14:37.028Z,83.80
2018-12-18T11:15:37.029Z,83.84
2018-12-18T11:16:37.405Z,83.59
2018-12-18T11:17:37.020Z,83.80
2018-12-18T11:18:36.983Z,83.39
2018-12-18T11:19:36.972Z,84.15
2018-12-18T11:20:36.979Z,84.73
2018-12-18T11:21:36.967Z,84.15
2018-12-18T11:22:36.974Z,83.80
2018-12-18T11:23:36.930Z,83.80
2018-12-18T11:24:36.919Z,83.59
2018-12-18T11:25:36.909Z,82.76
2018-12-18T11:26:36.918Z,83.70
2018-12-18T11:27:36.906Z,83.01
2018-12-18T11:28:36.875Z,83.07
2018-12-18T11:29:36.868Z,82.80
2018-12-18T11:30:36.851Z,83.42
2018-12-18T11:31:36.842Z,83.18
2018-12-18T11:32:36.897Z,83.59
2018-12-18T11:33:36.844Z,81.98
2018-12-18T11:34:36.806Z,82.35
2018-12-18T11:35:36.819Z,83.42
2018-12-18T11:36:36.785Z,83.42
2018-12-18T11:37:36.775Z,82.50
2018-12-18T11:38:36.778Z,82.80
2018-12-18T11:39:36.751Z,83.63
2018-12-18T11:40:36.803Z,82.66
2018-12-18T11:41:36.729Z,84.15
2018-12-18T11:42:36.721Z,82.80
2018-12-18T11:43:36.707Z,84.15
2018-12-18T11:44:36.722Z,82.70
2018-12-18T11:45:36.685Z,83.42
2018-12-18T11:46:36.691Z,83.73
2018-12-18T11:47:36.685Z,84.77
2018-12-18T11:48:36.659Z,82.90
2018-12-18T11:49:36.668Z,83.11
2018-12-18T11:50:36.647Z,82.50
2018-12-18T11:51:36.619Z,83.07
2018-12-18T11:52:36.609Z,83.01
2018-12-18T11:53:36.597Z,83.63
2018-12-18T11:54:36.611Z,83.22
2018-12-18T11:55:36.592Z,82.39
2018-12-18T11:56:36.589Z,82.08
2018-12-18T11:57:36.554Z,82.18
2018-12-18T11:58:36.543Z,82.18
2018-12-18T11:59:36.558Z,83.01
2018-12-18T12:00:36.526Z,83.42
2018-12-18T12:01:36.517Z,83.42
2018-12-18T12:02:42.705Z,83.01
2018-12-18T12:03:37.489Z,82.80
2018-12-18T12:04:36.530Z,83.32
2018-12-18T12:05:36.465Z,82.39
2018-12-18T12:06:36.452Z,82.70
2018-12-18T12:07:36.470Z,83.94
2018-12-18T12:08:36.430Z,83.84
2018-12-18T12:09:36.467Z,83.01
2018-12-18T12:10:36.410Z,82.18
2018-12-18T12:11:36.397Z,81.87
2018-12-18T12:12:36.388Z,82.08
2018-12-18T12:13:36.420Z,82.60
2018-12-18T12:14:36.402Z,82.08
2018-12-18T12:15:36.363Z,83.11
2018-12-18T12:16:36.341Z,82.80
2018-12-18T12:17:36.333Z,82.60
2018-12-18T12:18:36.374Z,83.42
2018-12-18T12:19:36.324Z,83.11
2018-12-18T12:20:36.302Z,82.18
2018-12-18T12:21:36.313Z,82.50
2018-12-18T12:22:36.290Z,82.60
2018-12-18T12:23:36.265Z,82.15
2018-12-18T12:24:36.282Z,81.67
2018-12-18T12:25:36.256Z,81.98
2018-12-18T12:26:36.231Z,82.18
2018-12-18T12:27:36.285Z,82.29
2018-12-18T12:28:36.212Z,82.29
2018-12-18T12:29:36.207Z,82.18
2018-12-18T12:30:36.200Z,81.98
2018-12-18T12:31:36.176Z,82.39
2018-12-18T12:32:36.204Z,81.87
2018-12-18T12:33:36.218Z,81.84
2018-12-18T12:34:36.151Z,81.73
2018-12-18T12:35:36.140Z,81.11
2018-12-18T12:36:36.124Z,81.11
2018-12-18T12:37:36.175Z,80.60
2018-12-18T12:38:44.664Z,81.01
2018-12-18T12:39:36.087Z,81.01
2018-12-18T12:40:36.078Z,80.29
2018-12-18T12:41:36.066Z,81.32
2018-12-18T12:42:44.164Z,81.21
2018-12-18T12:43:36.042Z,81.84
2018-12-18T12:44:36.032Z,81.11
2018-12-18T12:45:36.052Z,80.18
2018-12-18T12:46:36.017Z,80.80
2018-12-18T12:47:36.000Z,80.87
2018-12-18T12:48:36.010Z,80.76
2018-12-18T12:49:35.985Z,79.94
2018-12-18T12:50:35.968Z,80.39
2018-12-18T12:51:35.964Z,79.73
2018-12-18T12:52:35.953Z,80.87
2018-12-18T12:53:35.992Z,80.29
2018-12-18T12:54:35.932Z,80.35
2018-12-18T12:55:35.941Z,81.59